createdAt,value
2023-01-27T00:00:45.101Z,1.60
2023-01-27T00:01:45.132Z,1.30
2023-01-27T00:02:45.177Z,1.50
2023-01-27T00:03:45.234Z,1.10
2023-01-27T00:04:45.165Z,1.30
2023-01-27T00:05:45.187Z,1.90
2023-01-27T00:06:45.204Z,1.40
2023-01-27T00:07:45.213Z,1.10
2023-01-27T00:08:45.305Z,1.30
2023-01-27T00:09:45.254Z,1.60
2023-01-27T00:10:45.263Z,1.20
2023-01-27T00:11:45.281Z,2.60
2023-01-27T00:12:45.305Z,2.00
2023-01-27T00:13:45.321Z,1.60
2023-01-27T00:14:45.338Z,1.50
2023-01-27T00:15:45.404Z,1.90
2023-01-27T00:16:45.373Z,2.30
2023-01-27T00:17:45.411Z,1.40
2023-01-27T00:18:45.400Z,1.40
2023-01-27T00:19:45.438Z,1.50
2023-01-27T00:20:45.442Z,2.50
2023-01-27T00:21:45.453Z,1.80
2023-01-27T00:22:45.466Z,1.60
2023-01-27T00:23:45.485Z,1.80
2023-01-27T00:24:45.508Z,1.20
2023-01-27T00:25:45.519Z,1.40
2023-01-27T00:26:45.537Z,1.40
2023-01-27T00:27:45.557Z,2.70
2023-01-27T00:28:45.575Z,2.00
2023-01-27T00:29:45.585Z,1.10
2023-01-27T00:30:45.664Z,1.60
2023-01-27T00:31:45.662Z,1.30
2023-01-27T00:32:45.651Z,2.20
2023-01-27T00:33:45.678Z,1.80
2023-01-27T00:34:45.668Z,1.50
2023-01-27T00:35:45.698Z,1.50
2023-01-27T00:36:45.706Z,1.30
2023-01-27T00:37:45.731Z,2.00
2023-01-27T00:38:45.735Z,2.10
2023-01-27T00:39:45.757Z,1.80
2023-01-27T00:40:45.777Z,1.90
2023-01-27T00:41:45.797Z,1.50
2023-01-27T00:42:45.811Z,1.40
2023-01-27T00:43:45.828Z,2.40
2023-01-27T00:44:45.836Z,1.20
2023-01-27T00:45:45.861Z,1.40
2023-01-27T00:46:45.944Z,2.40
2023-01-27T00:47:45.894Z,2.20
2023-01-27T00:48:45.905Z,1.90
2023-01-27T00:49:45.959Z,2.50
2023-01-27T00:50:45.947Z,1.10
2023-01-27T00:51:45.967Z,1.80
2023-01-27T00:52:45.979Z,1.50
2023-01-27T00:53:45.988Z,1.70
2023-01-27T00:54:46.005Z,2.00
2023-01-27T00:55:46.021Z,1.90
2023-01-27T00:56:46.055Z,1.50
2023-01-27T00:57:46.063Z,1.60
2023-01-27T00:58:46.084Z,2.80
2023-01-27T00:59:46.095Z,1.60
2023-01-27T01:00:46.117Z,2.00
2023-01-27T01:01:46.214Z,2.20
2023-01-27T01:02:46.144Z,1.20
2023-01-27T01:03:46.159Z,1.60
2023-01-27T01:04:46.172Z,1.80
2023-01-27T01:05:46.217Z,2.50
2023-01-27T01:06:46.213Z,2.20
2023-01-27T01:07:46.233Z,1.20
2023-01-27T01:08:46.248Z,1.30
2023-01-27T01:09:46.263Z,1.30
2023-01-27T01:10:46.273Z,1.70
2023-01-27T01:11:46.296Z,1.80
2023-01-27T01:12:46.312Z,2.10
2023-01-27T01:13:46.322Z,1.00
2023-01-27T01:14:46.346Z,1.60
2023-01-27T01:15:46.381Z,1.60
2023-01-27T01:16:46.388Z,2.40
2023-01-27T01:17:46.390Z,1.50
2023-01-27T01:18:46.407Z,1.50
2023-01-27T01:19:46.422Z,1.80
2023-01-27T01:20:46.447Z,1.40
2023-01-27T01:21:46.476Z,1.40
2023-01-27T01:22:46.482Z,2.30
2023-01-27T01:23:46.496Z,1.60
2023-01-27T01:24:46.506Z,2.20
2023-01-27T01:25:46.524Z,1.40
2023-01-27T01:26:46.538Z,2.10
2023-01-27T01:27:46.555Z,1.20
2023-01-27T01:28:46.585Z,2.50
2023-01-27T01:29:46.603Z,1.40
2023-01-27T01:30:46.704Z,1.40
2023-01-27T01:31:46.709Z,1.20
2023-01-27T01:32:46.642Z,1.30
2023-01-27T01:33:46.671Z,1.30
2023-01-27T01:34:46.673Z,1.60
2023-01-27T01:35:46.704Z,1.50
2023-01-27T01:36:46.726Z,1.30
2023-01-27T01:37:46.746Z,1.90
2023-01-27T01:38:46.745Z,2.70
2023-01-27T01:39:46.755Z,2.20
2023-01-27T01:40:46.780Z,1.30
2023-01-27T01:41:46.795Z,1.60
2023-01-27T01:42:46.815Z,1.20
2023-01-27T01:43:46.839Z,1.40
2023-01-27T01:44:46.846Z,2.10
2023-01-27T01:45:46.865Z,2.60
2023-01-27T01:46:46.968Z,1.70
2023-01-27T01:47:46.887Z,2.10
2023-01-27T01:48:46.923Z,1.70
2023-01-27T01:49:46.928Z,1.60
2023-01-27T01:50:46.937Z,2.00
2023-01-27T01:51:46.957Z,2.20
2023-01-27T01:52:46.971Z,1.50
2023-01-27T01:53:47.030Z,1.50
2023-01-27T01:54:47.010Z,2.00
2023-01-27T01:55:47.034Z,1.80
2023-01-27T01:56:47.043Z,1.50
2023-01-27T01:57:47.055Z,1.50
2023-01-27T01:58:47.073Z,2.80
2023-01-27T01:59:47.108Z,1.80
2023-01-27T02:00:47.106Z,2.80
2023-01-27T02:01:47.120Z,1.20
2023-01-27T02:02:47.174Z,1.40
2023-01-27T02:03:47.160Z,2.10
2023-01-27T02:04:47.176Z,2.20
2023-01-27T02:05:47.187Z,1.80
2023-01-27T02:06:47.213Z,1.80
2023-01-27T02:07:47.220Z,2.10
2023-01-27T02:08:47.244Z,2.60
2023-01-27T02:09:47.274Z,2.20
2023-01-27T02:10:47.279Z,2.10
2023-01-27T02:11:47.313Z,1.60
2023-01-27T02:12:47.311Z,1.50
2023-01-27T02:13:47.318Z,3.10
2023-01-27T02:14:47.343Z,2.30
2023-01-27T02:15:47.357Z,1.90
2023-01-27T02:16:47.482Z,1.40
2023-01-27T02:17:47.386Z,2.00
2023-01-27T02:18:47.401Z,2.20
2023-01-27T02:19:47.428Z,1.70
2023-01-27T02:20:47.439Z,1.50
2023-01-27T02:21:48.852Z,1.70
2023-01-27T02:22:47.474Z,2.40
2023-01-27T02:23:47.493Z,1.80
2023-01-27T02:24:47.507Z,1.90
2023-01-27T02:25:47.551Z,2.70
2023-01-27T02:26:47.547Z,1.80
2023-01-27T02:27:47.563Z,2.40
2023-01-27T02:28:47.577Z,1.70
2023-01-27T02:29:47.595Z,1.40
2023-01-27T02:30:47.717Z,2.40
2023-01-27T02:31:47.745Z,1.80
2023-01-27T02:32:47.646Z,1.80
2023-01-27T02:33:47.653Z,2.90
2023-01-27T02:34:47.675Z,2.20
2023-01-27T02:35:47.700Z,2.10
2023-01-27T02:36:47.707Z,1.90
2023-01-27T02:37:47.720Z,2.40
2023-01-27T02:38:47.738Z,2.10
2023-01-27T02:39:47.755Z,1.40
2023-01-27T02:40:47.764Z,2.60
2023-01-27T02:41:47.803Z,2.20
2023-01-27T02:42:47.796Z,2.20
2023-01-27T02:43:47.834Z,2.10
2023-01-27T02:44:47.836Z,2.60
2023-01-27T02:45:47.896Z,1.80
2023-01-27T02:46:47.868Z,1.70
2023-01-27T02:47:47.886Z,2.90
2023-01-27T02:48:47.902Z,2.10
2023-01-27T02:49:47.911Z,2.00
2023-01-27T02:50:47.942Z,2.00
2023-01-27T02:51:47.965Z,2.30
2023-01-27T02:52:47.972Z,2.10
2023-01-27T02:53:47.978Z,2.50
2023-01-27T02:54:47.997Z,2.70
2023-01-27T02:55:48.018Z,1.90
2023-01-27T02:56:48.040Z,2.50
2023-01-27T02:57:48.062Z,2.50
2023-01-27T02:58:48.076Z,2.60
2023-01-27T02:59:48.080Z,2.40
2023-01-27T03:00:48.112Z,3.00
2023-01-27T03:01:48.178Z,2.50
2023-01-27T03:02:48.236Z,2.70
2023-01-27T03:03:48.147Z,2.20
2023-01-27T03:04:48.164Z,3.20
2023-01-27T03:05:48.203Z,2.50
2023-01-27T03:06:48.200Z,3.10
2023-01-27T03:07:48.214Z,2.70
2023-01-27T03:08:48.239Z,2.60
2023-01-27T03:09:48.256Z,3.60
2023-01-27T03:10:48.254Z,2.00
2023-01-27T03:11:48.283Z,2.80
2023-01-27T03:12:48.301Z,2.20
2023-01-27T03:13:48.324Z,2.60
2023-01-27T03:14:48.331Z,3.40
2023-01-27T03:15:48.367Z,3.00
2023-01-27T03:16:48.352Z,2.20
2023-01-27T03:17:48.370Z,4.00
2023-01-27T03:18:48.393Z,2.70
2023-01-27T03:19:48.402Z,2.90
2023-01-27T03:20:48.439Z,2.80
2023-01-27T03:21:48.436Z,2.70
2023-01-27T03:22:48.458Z,2.60
2023-01-27T03:23:48.471Z,3.50
2023-01-27T03:24:48.484Z,2.90
2023-01-27T03:25:48.522Z,3.20
2023-01-27T03:26:48.533Z,3.20
2023-01-27T03:27:48.543Z,2.70
2023-01-27T03:28:48.551Z,3.00
2023-01-27T03:29:48.592Z,3.50
2023-01-27T03:30:48.694Z,3.30
2023-01-27T03:31:48.660Z,3.10
2023-01-27T03:32:48.616Z,4.00
2023-01-27T03:33:48.641Z,2.50
2023-01-27T03:34:48.654Z,2.60
2023-01-27T03:35:48.766Z,3.40
2023-01-27T03:36:48.678Z,2.80
2023-01-27T03:37:48.700Z,4.70
2023-01-27T03:38:48.711Z,3.10
2023-01-27T03:39:48.736Z,3.60
2023-01-27T03:40:48.763Z,2.30
2023-01-27T03:41:48.768Z,2.90
2023-01-27T03:42:48.777Z,3.10
2023-01-27T03:43:48.800Z,3.60
2023-01-27T03:44:48.810Z,3.10
2023-01-27T03:45:48.874Z,5.50
2023-01-27T03:46:48.854Z,3.10
2023-01-27T03:47:48.859Z,2.90
2023-01-27T03:48:48.901Z,3.80
2023-01-27T03:49:48.896Z,4.20
2023-01-27T03:50:48.916Z,3.00
2023-01-27T03:51:48.931Z,3.40
2023-01-27T03:52:48.954Z,3.20
2023-01-27T03:53:48.958Z,3.40
2023-01-27T03:54:48.975Z,2.90
2023-01-27T03:55:49.017Z,4.10
2023-01-27T03:56:49.024Z,3.50
2023-01-27T03:57:49.021Z,4.10
2023-01-27T03:58:49.048Z,3.70
2023-01-27T03:59:49.063Z,3.30
2023-01-27T04:00:49.074Z,3.40
2023-01-27T04:01:49.160Z,2.60
2023-01-27T04:02:49.135Z,3.50
2023-01-27T04:03:49.122Z,4.20
2023-01-27T04:04:49.143Z,4.70
2023-01-27T04:05:49.151Z,2.50
2023-01-27T04:06:49.182Z,3.70
2023-01-27T04:07:49.183Z,3.30
2023-01-27T04:08:49.201Z,2.50
2023-01-27T04:09:49.217Z,3.70
2023-01-27T04:10:49.231Z,3.00
2023-01-27T04:11:49.255Z,3.20
2023-01-27T04:12:49.275Z,2.90
2023-01-27T04:13:49.287Z,3.30
2023-01-27T04:14:49.298Z,2.60
2023-01-27T04:15:49.363Z,2.60
2023-01-27T04:16:49.337Z,3.30
2023-01-27T04:17:49.372Z,4.60
2023-01-27T04:18:49.845Z,3.70
2023-01-27T04:19:49.384Z,3.60
2023-01-27T04:20:49.413Z,3.50
2023-01-27T04:21:49.420Z,2.80
2023-01-27T04:22:49.428Z,3.20
2023-01-27T04:23:49.532Z,3.30
2023-01-27T04:24:49.473Z,3.30
2023-01-27T04:25:49.484Z,4.10
2023-01-27T04:26:49.490Z,3.50
2023-01-27T04:27:49.514Z,3.20
2023-01-27T04:28:49.523Z,2.90
2023-01-27T04:29:49.538Z,4.30
2023-01-27T04:30:49.593Z,3.00
2023-01-27T04:31:49.650Z,2.80
2023-01-27T04:32:49.594Z,4.40
2023-01-27T04:33:49.650Z,3.00
2023-01-27T04:34:49.628Z,3.40
2023-01-27T04:35:49.642Z,2.90
2023-01-27T04:36:49.660Z,4.30
2023-01-27T04:37:49.699Z,3.30
2023-01-27T04:38:49.682Z,3.70
2023-01-27T04:39:49.706Z,3.20
2023-01-27T04:40:49.723Z,4.10
2023-01-27T04:41:49.768Z,3.60
2023-01-27T04:42:49.755Z,3.30
2023-01-27T04:43:49.763Z,3.70
2023-01-27T04:44:49.788Z,3.50
2023-01-27T04:45:49.887Z,2.90
2023-01-27T04:46:49.838Z,3.60
2023-01-27T04:47:49.836Z,4.50
2023-01-27T04:48:49.855Z,3.30
2023-01-27T04:49:49.892Z,3.00
2023-01-27T04:50:49.876Z,4.10
2023-01-27T04:51:49.905Z,3.30
2023-01-27T04:52:49.920Z,3.80
2023-01-27T04:53:49.925Z,2.70
2023-01-27T04:54:49.956Z,3.50
2023-01-27T04:55:49.973Z,4.10
2023-01-27T04:56:49.982Z,3.50
2023-01-27T04:57:49.989Z,3.80
2023-01-27T04:58:50.015Z,3.90
2023-01-27T04:59:50.064Z,4.30
2023-01-27T05:00:50.037Z,4.10
2023-01-27T05:01:50.119Z,2.70
2023-01-27T05:02:50.099Z,2.90
2023-01-27T05:03:50.102Z,3.40
2023-01-27T05:04:50.108Z,3.30
2023-01-27T05:05:50.146Z,3.60
2023-01-27T05:06:50.135Z,3.60
2023-01-27T05:07:50.170Z,4.50
2023-01-27T05:08:50.174Z,2.80
2023-01-27T05:09:50.188Z,4.30
2023-01-27T05:10:50.208Z,3.30
2023-01-27T05:11:50.224Z,3.70
2023-01-27T05:12:50.237Z,3.40
2023-01-27T05:13:50.261Z,4.20
2023-01-27T05:14:50.262Z,3.90
2023-01-27T05:15:50.369Z,2.70
2023-01-27T05:16:50.362Z,2.60
2023-01-27T05:17:50.316Z,3.80
2023-01-27T05:18:50.337Z,4.20
2023-01-27T05:19:50.343Z,3.80
2023-01-27T05:20:51.557Z,3.40
2023-01-27T05:21:50.405Z,3.40
2023-01-27T05:22:50.391Z,4.30
2023-01-27T05:23:50.491Z,4.10
2023-01-27T05:24:50.443Z,2.50
2023-01-27T05:25:50.442Z,3.40
2023-01-27T05:26:50.453Z,3.10
2023-01-27T05:27:50.478Z,4.70
2023-01-27T05:28:50.489Z,3.80
2023-01-27T05:29:50.503Z,4.00
2023-01-27T05:30:50.637Z,4.00
2023-01-27T05:31:50.615Z,3.70
2023-01-27T05:32:50.562Z,4.40
2023-01-27T05:33:50.566Z,3.10
2023-01-27T05:34:50.587Z,3.20
2023-01-27T05:35:50.605Z,3.50
2023-01-27T05:36:50.621Z,3.60
2023-01-27T05:37:50.650Z,3.10
2023-01-27T05:38:50.647Z,3.60
2023-01-27T05:39:50.662Z,4.10
2023-01-27T05:40:50.677Z,3.80
2023-01-27T05:41:50.697Z,3.40
2023-01-27T05:42:50.723Z,3.80
2023-01-27T05:43:50.734Z,3.00
2023-01-27T05:44:50.742Z,3.80
2023-01-27T05:45:50.761Z,3.40
2023-01-27T05:46:50.835Z,3.60
2023-01-27T05:47:50.788Z,3.90
2023-01-27T05:48:50.809Z,3.70
2023-01-27T05:49:50.833Z,3.60
2023-01-27T05:50:50.844Z,6.10
2023-01-27T05:51:50.856Z,3.70
2023-01-27T05:52:50.869Z,3.10
2023-01-27T05:53:50.931Z,4.70
2023-01-27T05:54:50.912Z,3.80
2023-01-27T05:55:50.918Z,3.40
2023-01-27T05:56:50.944Z,2.90
2023-01-27T05:57:50.949Z,4.20
2023-01-27T05:58:50.972Z,4.20
2023-01-27T05:59:50.995Z,4.20
2023-01-27T06:00:51.006Z,2.80
2023-01-27T06:01:51.077Z,3.50
2023-01-27T06:02:51.128Z,4.00
2023-01-27T06:03:51.046Z,3.50
2023-01-27T06:04:51.069Z,4.20
2023-01-27T06:05:51.076Z,2.60
2023-01-27T06:06:51.111Z,4.30
2023-01-27T06:07:51.116Z,4.10
2023-01-27T06:08:51.131Z,4.00
2023-01-27T06:09:51.159Z,3.50
2023-01-27T06:10:51.157Z,3.20
2023-01-27T06:11:51.179Z,3.50
2023-01-27T06:12:51.187Z,4.60
2023-01-27T06:13:51.203Z,4.20
2023-01-27T06:14:51.226Z,3.60
2023-01-27T06:15:51.239Z,3.80
2023-01-27T06:16:51.258Z,4.00
2023-01-27T06:17:52.845Z,4.20
2023-01-27T06:18:51.294Z,3.90
2023-01-27T06:19:51.301Z,4.00
2023-01-27T06:20:51.333Z,4.10
2023-01-27T06:21:51.347Z,5.60
2023-01-27T06:22:51.351Z,4.20
2023-01-27T06:23:51.419Z,4.20
2023-01-27T06:24:51.382Z,3.70
2023-01-27T06:25:51.414Z,3.80
2023-01-27T06:26:51.415Z,4.00
2023-01-27T06:27:51.432Z,3.60
2023-01-27T06:28:51.448Z,5.10
2023-01-27T06:29:51.474Z,3.10
2023-01-27T06:30:51.485Z,4.20
2023-01-27T06:31:51.531Z,4.60
2023-01-27T06:32:51.512Z,3.90
2023-01-27T06:33:51.525Z,3.60
2023-01-27T06:34:51.577Z,3.70
2023-01-27T06:35:51.566Z,5.00
2023-01-27T06:36:51.575Z,3.90
2023-01-27T06:37:51.591Z,3.00
2023-01-27T06:38:51.605Z,3.80
2023-01-27T06:39:51.638Z,3.70
2023-01-27T06:40:51.638Z,3.70
2023-01-27T06:41:51.678Z,3.50
2023-01-27T06:42:51.669Z,3.80
2023-01-27T06:43:51.685Z,4.30
2023-01-27T06:44:51.709Z,3.40
2023-01-27T06:45:51.711Z,4.60
2023-01-27T06:46:51.725Z,4.10
2023-01-27T06:47:51.740Z,4.80
2023-01-27T06:48:51.764Z,3.80
2023-01-27T06:49:51.787Z,4.90
2023-01-27T06:50:51.799Z,7.40
2023-01-27T06:51:51.811Z,4.20
2023-01-27T06:52:51.820Z,4.10
2023-01-27T06:53:51.849Z,3.40
2023-01-27T06:54:51.853Z,5.20
2023-01-27T06:55:51.875Z,4.50
2023-01-27T06:56:51.883Z,5.90
2023-01-27T06:57:51.956Z,4.50
2023-01-27T06:58:51.915Z,3.20
2023-01-27T06:59:51.932Z,4.30
2023-01-27T07:00:51.946Z,5.00
2023-01-27T07:01:52.040Z,4.30
2023-01-27T07:02:52.006Z,3.70
2023-01-27T07:03:52.010Z,4.00
2023-01-27T07:04:52.019Z,4.00
2023-01-27T07:05:52.026Z,3.70
2023-01-27T07:06:52.048Z,4.90
2023-01-27T07:07:52.060Z,4.30
2023-01-27T07:08:54.646Z,4.10
2023-01-27T07:09:53.058Z,5.10
2023-01-27T07:10:52.103Z,3.50
2023-01-27T07:11:52.128Z,5.10
2023-01-27T07:12:52.135Z,5.00
2023-01-27T07:13:52.185Z,3.80
2023-01-27T07:14:52.172Z,3.90
2023-01-27T07:15:52.184Z,3.60
2023-01-27T07:16:52.212Z,4.00
2023-01-27T07:17:52.215Z,3.80
2023-01-27T07:18:52.236Z,3.70
2023-01-27T07:19:52.249Z,5.60
2023-01-27T07:20:52.273Z,4.30
2023-01-27T07:21:52.276Z,4.60
2023-01-27T07:22:52.292Z,5.40
2023-01-27T07:23:52.396Z,3.70
2023-01-27T07:24:52.331Z,4.70
2023-01-27T07:25:52.349Z,3.70
2023-01-27T07:26:52.356Z,3.50
2023-01-27T07:27:52.371Z,4.20
2023-01-27T07:28:52.399Z,4.30
2023-01-27T07:29:52.451Z,3.50
2023-01-27T07:30:52.479Z,4.30
2023-01-27T07:31:52.522Z,4.70
2023-01-27T07:32:52.455Z,4.30
2023-01-27T07:33:52.474Z,5.80
2023-01-27T07:34:52.484Z,5.70
2023-01-27T07:35:52.497Z,3.50
2023-01-27T07:36:52.512Z,3.70
2023-01-27T07:37:52.540Z,4.00
2023-01-27T07:38:52.550Z,4.40
2023-01-27T07:39:52.642Z,3.20
2023-01-27T07:40:52.575Z,4.70
2023-01-27T07:41:52.595Z,4.40
2023-01-27T07:42:52.613Z,3.70
2023-01-27T07:43:52.698Z,3.80
2023-01-27T07:44:52.638Z,4.10
2023-01-27T07:45:52.690Z,4.00
2023-01-27T07:46:52.687Z,3.30
2023-01-27T07:47:52.700Z,3.70
2023-01-27T07:48:52.706Z,4.30
2023-01-27T07:49:52.717Z,3.30
2023-01-27T07:50:52.732Z,4.10
2023-01-27T07:51:52.755Z,4.40
2023-01-27T07:52:52.770Z,5.30
2023-01-27T07:53:52.787Z,4.30
2023-01-27T07:54:52.801Z,4.00
2023-01-27T07:55:52.817Z,4.00
2023-01-27T07:56:52.833Z,5.20
2023-01-27T07:57:52.842Z,3.20
2023-01-27T07:58:52.860Z,4.80
2023-01-27T07:59:52.872Z,4.40
2023-01-27T08:00:52.901Z,4.50
2023-01-27T08:01:52.922Z,5.10
2023-01-27T08:02:52.981Z,3.40
2023-01-27T08:03:52.932Z,3.60
2023-01-27T08:04:53.924Z,4.40
2023-01-27T08:05:52.984Z,5.90
2023-01-27T08:06:52.989Z,4.40
2023-01-27T08:07:53.005Z,4.30
2023-01-27T08:08:53.021Z,3.70
2023-01-27T08:09:53.036Z,4.30
2023-01-27T08:10:53.054Z,4.20
2023-01-27T08:11:53.067Z,5.30
2023-01-27T08:12:53.115Z,4.70
2023-01-27T08:13:53.096Z,3.20
2023-01-27T08:14:53.107Z,4.10
2023-01-27T08:15:53.120Z,5.40
2023-01-27T08:16:53.185Z,4.70
2023-01-27T08:17:53.182Z,4.10
2023-01-27T08:18:53.176Z,4.40
2023-01-27T08:19:53.191Z,4.60
2023-01-27T08:20:53.207Z,4.10
2023-01-27T08:21:53.233Z,3.80
2023-01-27T08:22:53.244Z,5.10
2023-01-27T08:23:53.344Z,4.90
2023-01-27T08:24:53.265Z,4.30
2023-01-27T08:25:53.297Z,4.60
2023-01-27T08:26:53.301Z,4.20
2023-01-27T08:27:53.315Z,4.90
2023-01-27T08:28:53.328Z,4.70
2023-01-27T08:29:53.359Z,4.00
2023-01-27T08:30:53.404Z,6.20
2023-01-27T08:31:53.410Z,3.80
2023-01-27T08:32:53.388Z,3.80
2023-01-27T08:33:53.452Z,3.30
2023-01-27T08:34:53.430Z,4.60
2023-01-27T08:35:53.434Z,3.30
2023-01-27T08:36:53.449Z,3.20
2023-01-27T08:37:53.466Z,3.90
2023-01-27T08:38:53.492Z,4.20
2023-01-27T08:39:53.498Z,4.20
2023-01-27T08:40:53.519Z,5.10
2023-01-27T08:41:53.561Z,4.00
2023-01-27T08:42:53.544Z,5.60
2023-01-27T08:43:53.567Z,4.50
2023-01-27T08:44:53.585Z,4.90
2023-01-27T08:45:53.620Z,4.20
2023-01-27T08:46:53.613Z,5.10
2023-01-27T08:47:53.622Z,4.00
2023-01-27T08:48:53.635Z,3.60
2023-01-27T08:49:53.681Z,3.20
2023-01-27T08:50:53.675Z,4.50
2023-01-27T08:51:53.683Z,4.30
2023-01-27T08:52:53.713Z,4.40
2023-01-27T08:53:53.724Z,4.10
2023-01-27T08:54:53.737Z,3.90
2023-01-27T08:55:53.747Z,4.80
2023-01-27T08:56:53.772Z,3.80
2023-01-27T08:57:53.777Z,4.20
2023-01-27T08:58:53.804Z,5.10
2023-01-27T08:59:53.820Z,5.80
2023-01-27T09:00:53.836Z,3.90
2023-01-27T09:01:53.839Z,4.80
2023-01-27T09:02:53.855Z,3.70
2023-01-27T09:03:53.877Z,4.60
2023-01-27T09:04:53.930Z,3.70
2023-01-27T09:05:53.937Z,4.30
2023-01-27T09:06:53.920Z,3.60
2023-01-27T09:07:53.942Z,3.30
2023-01-27T09:08:53.955Z,3.80
2023-01-27T09:10:04.177Z,2.80
2023-01-27T09:10:54.001Z,3.60
2023-01-27T09:11:54.004Z,4.00
2023-01-27T09:12:54.012Z,3.50
2023-01-27T09:13:54.046Z,4.10
2023-01-27T09:14:54.042Z,4.10
2023-01-27T09:15:54.092Z,4.40
2023-01-27T09:16:54.080Z,4.00
2023-01-27T09:17:54.089Z,3.80
2023-01-27T09:18:54.112Z,3.10
2023-01-27T09:19:54.129Z,4.30
2023-01-27T09:20:54.149Z,3.60
2023-01-27T09:21:54.177Z,3.60
2023-01-27T09:22:54.165Z,4.80
2023-01-27T09:23:54.248Z,3.50
2023-01-27T09:24:54.199Z,3.90
2023-01-27T09:25:54.220Z,3.90
2023-01-27T09:26:54.228Z,3.60
2023-01-27T09:27:54.244Z,4.50
2023-01-27T09:28:54.265Z,4.20
2023-01-27T09:29:54.276Z,3.40
2023-01-27T09:30:54.346Z,5.20
2023-01-27T09:31:54.330Z,3.80
2023-01-27T09:32:54.321Z,4.10
2023-01-27T09:33:54.344Z,2.90
2023-01-27T09:34:54.352Z,3.10
2023-01-27T09:35:54.375Z,4.60
2023-01-27T09:36:54.397Z,3.20
2023-01-27T09:37:54.621Z,4.00
2023-01-27T09:38:54.414Z,2.80
2023-01-27T09:39:54.430Z,3.80
2023-01-27T09:40:54.444Z,2.90
2023-01-27T09:41:54.462Z,4.00
2023-01-27T09:42:54.476Z,4.80
2023-01-27T09:43:54.492Z,4.30
2023-01-27T09:44:54.512Z,3.90
2023-01-27T09:45:54.577Z,3.30
2023-01-27T09:46:54.540Z,4.30
2023-01-27T09:47:54.561Z,4.90
2023-01-27T09:48:54.571Z,4.20
2023-01-27T09:49:54.607Z,4.10
2023-01-27T09:50:54.616Z,3.80
2023-01-27T09:51:54.622Z,3.90
2023-01-27T09:52:54.639Z,4.60
2023-01-27T09:53:54.678Z,4.20
2023-01-27T09:54:54.664Z,3.50
2023-01-27T09:55:54.685Z,3.00
2023-01-27T09:56:54.696Z,3.30
2023-01-27T09:57:54.717Z,3.30
2023-01-27T09:58:54.736Z,4.00
2023-01-27T09:59:54.747Z,4.60
2023-01-27T10:00:54.763Z,4.50
2023-01-27T10:01:54.772Z,3.90
2023-01-27T10:02:54.788Z,4.00
2023-01-27T10:03:54.810Z,3.80
2023-01-27T10:04:54.855Z,4.60
2023-01-27T10:05:54.833Z,5.40
2023-01-27T10:06:54.864Z,3.00
2023-01-27T10:07:54.863Z,4.30
2023-01-27T10:08:54.888Z,3.80
2023-01-27T10:09:54.917Z,3.50
2023-01-27T10:10:54.917Z,3.90
2023-01-27T10:11:54.932Z,4.30
2023-01-27T10:12:54.950Z,4.60
2023-01-27T10:13:54.958Z,4.40
2023-01-27T10:14:54.978Z,3.10
2023-01-27T10:15:55.029Z,3.70
2023-01-27T10:16:55.001Z,4.50
2023-01-27T10:17:55.023Z,4.90
2023-01-27T10:18:55.032Z,4.30
2023-01-27T10:19:55.048Z,4.60
2023-01-27T10:20:55.067Z,4.40
2023-01-27T10:21:55.079Z,4.30
2023-01-27T10:22:55.101Z,4.50
2023-01-27T10:23:55.161Z,3.70
2023-01-27T10:24:55.134Z,5.20
2023-01-27T10:25:55.168Z,3.80
2023-01-27T10:26:55.159Z,3.70
2023-01-27T10:27:55.182Z,4.60
2023-01-27T10:28:55.197Z,4.40
2023-01-27T10:29:55.212Z,3.60
2023-01-27T10:30:55.299Z,4.20
2023-01-27T10:31:55.292Z,3.80
2023-01-27T10:32:55.251Z,4.70
2023-01-27T10:33:55.266Z,3.80
2023-01-27T10:34:55.288Z,4.50
2023-01-27T10:35:55.304Z,4.50
2023-01-27T10:36:55.314Z,3.60
2023-01-27T10:37:55.335Z,4.40
2023-01-27T10:38:55.343Z,4.00
2023-01-27T10:39:55.365Z,3.40
2023-01-27T10:40:55.375Z,4.50
2023-01-27T10:41:55.428Z,3.30
2023-01-27T10:42:55.404Z,3.80
2023-01-27T10:43:55.432Z,4.70
2023-01-27T10:44:55.645Z,4.30
2023-01-27T10:45:55.495Z,4.50
2023-01-27T10:46:55.544Z,3.80
2023-01-27T10:47:55.482Z,4.80
2023-01-27T10:48:55.504Z,4.10
2023-01-27T10:49:55.722Z,3.30
2023-01-27T10:50:55.537Z,3.50
2023-01-27T10:51:55.544Z,3.10
2023-01-27T10:52:55.560Z,4.20
2023-01-27T10:53:55.584Z,4.10
2023-01-27T10:54:55.596Z,4.30
2023-01-27T10:55:55.615Z,3.80
2023-01-27T10:56:55.629Z,3.90
2023-01-27T10:57:55.657Z,4.50
2023-01-27T10:58:55.651Z,3.70
2023-01-27T11:00:22.988Z,4.60
2023-01-27T11:01:19.727Z,3.50
2023-01-27T11:01:55.719Z,4.10
2023-01-27T11:02:55.720Z,3.80
2023-01-27T11:03:55.822Z,4.00
2023-01-27T11:04:55.766Z,4.20
2023-01-27T11:05:55.768Z,3.50
2023-01-27T11:06:55.777Z,4.10
2023-01-27T11:07:55.799Z,3.70
2023-01-27T11:08:55.812Z,3.70
2023-01-27T11:09:55.831Z,3.70
2023-01-27T11:10:55.844Z,3.20
2023-01-27T11:11:55.853Z,4.20
2023-01-27T11:12:55.876Z,3.80
2023-01-27T11:13:55.904Z,3.60
2023-01-27T11:14:55.901Z,3.50
2023-01-27T11:15:55.923Z,4.00
2023-01-27T11:16:55.963Z,5.70
2023-01-27T11:17:55.952Z,4.70
2023-01-27T11:18:55.981Z,4.60
2023-01-27T11:19:55.979Z,4.10
2023-01-27T11:20:55.992Z,4.20
2023-01-27T11:22:07.131Z,4.00
2023-01-27T11:22:56.022Z,3.10
2023-01-27T11:23:56.114Z,3.80
2023-01-27T11:24:56.053Z,3.70
2023-01-27T11:25:56.080Z,3.50
2023-01-27T11:26:56.092Z,4.40
2023-01-27T11:27:56.108Z,4.00
2023-01-27T11:28:56.115Z,3.60
2023-01-27T11:29:56.255Z,3.40
2023-01-27T11:30:56.143Z,4.30
2023-01-27T11:31:56.190Z,4.40
2023-01-27T11:32:56.177Z,3.50
2023-01-27T11:33:56.200Z,4.00
2023-01-27T11:34:56.209Z,3.60
2023-01-27T11:35:56.232Z,3.80
2023-01-27T11:36:56.247Z,3.90
2023-01-27T11:38:06.345Z,5.00
2023-01-27T11:38:56.278Z,3.90
2023-01-27T11:39:56.286Z,3.90
2023-01-27T11:40:56.346Z,3.70
2023-01-27T11:41:56.331Z,3.70
2023-01-27T11:42:56.340Z,4.70
2023-01-27T11:43:56.352Z,3.90
2023-01-27T11:44:56.368Z,3.50
2023-01-27T11:45:56.436Z,4.70
2023-01-27T11:46:56.400Z,3.90
2023-01-27T11:47:56.412Z,5.20
2023-01-27T11:48:56.437Z,4.50
2023-01-27T11:49:56.452Z,3.70
2023-01-27T11:50:56.457Z,4.50
2023-01-27T11:51:56.479Z,5.70
2023-01-27T11:52:56.500Z,5.30
2023-01-27T11:53:56.516Z,4.20
2023-01-27T11:54:56.528Z,3.70
2023-01-27T11:55:56.533Z,6.20
2023-01-27T11:56:56.559Z,4.80
2023-01-27T11:57:56.580Z,4.30
2023-01-27T11:58:56.591Z,4.20
2023-01-27T11:59:56.603Z,5.10
2023-01-27T12:00:56.611Z,5.60
2023-01-27T12:01:56.678Z,3.80
2023-01-27T12:02:56.641Z,4.40
2023-01-27T12:03:56.666Z,4.60
2023-01-27T12:04:56.798Z,3.70
2023-01-27T12:05:56.701Z,4.10
2023-01-27T12:06:56.704Z,4.30
2023-01-27T12:07:56.728Z,4.40
2023-01-27T12:08:56.736Z,4.80
2023-01-27T12:09:56.749Z,4.30
2023-01-27T12:10:56.776Z,4.80
2023-01-27T12:11:56.783Z,5.70
2023-01-27T12:12:56.825Z,5.10
2023-01-27T12:13:56.854Z,5.00
2023-01-27T12:14:56.844Z,5.00
2023-01-27T12:15:56.897Z,6.10
2023-01-27T12:16:56.865Z,7.20
2023-01-27T12:17:56.912Z,6.90
2023-01-27T12:18:56.888Z,4.20
2023-01-27T12:19:56.903Z,6.30
2023-01-27T12:20:56.927Z,6.60
2023-01-27T12:21:56.952Z,6.70
2023-01-27T12:22:56.959Z,6.20
2023-01-27T12:23:57.043Z,6.70
2023-01-27T12:24:56.992Z,7.40
2023-01-27T12:25:56.999Z,6.50
2023-01-27T12:26:57.025Z,7.10
2023-01-27T12:27:57.030Z,5.60
2023-01-27T12:28:57.045Z,4.80
2023-01-27T12:29:57.061Z,5.70
2023-01-27T12:30:57.158Z,5.60
2023-01-27T12:31:57.136Z,5.30
2023-01-27T12:32:57.107Z,5.90
2023-01-27T12:33:57.149Z,4.90
2023-01-27T12:34:57.152Z,5.40
2023-01-27T12:35:57.152Z,7.50
2023-01-27T12:36:57.175Z,6.70
2023-01-27T12:37:57.188Z,11.50
2023-01-27T12:38:57.207Z,8.20
2023-01-27T12:39:57.229Z,6.20
2023-01-27T12:40:57.236Z,9.70
2023-01-27T12:41:57.259Z,7.60
2023-01-27T12:42:57.260Z,6.50
2023-01-27T12:43:57.277Z,7.20
2023-01-27T12:44:59.516Z,8.20
2023-01-27T12:45:57.321Z,8.60
2023-01-27T12:46:57.389Z,8.10
2023-01-27T12:47:57.350Z,7.30
2023-01-27T12:48:57.359Z,9.60
2023-01-27T12:49:57.398Z,8.10
2023-01-27T12:50:57.412Z,7.50
2023-01-27T12:51:57.408Z,8.10
2023-01-27T12:52:57.422Z,5.80
2023-01-27T12:53:57.442Z,6.90
2023-01-27T12:54:57.472Z,7.10
2023-01-27T12:55:57.475Z,7.10
2023-01-27T12:56:57.485Z,6.30
2023-01-27T12:57:57.495Z,6.30
2023-01-27T12:58:57.523Z,7.90
2023-01-27T12:59:57.525Z,8.00
2023-01-27T13:00:57.626Z,8.30
2023-01-27T13:01:57.733Z,6.70
2023-01-27T13:02:57.583Z,5.80
2023-01-27T13:03:57.660Z,6.90
2023-01-27T13:04:57.614Z,6.20
2023-01-27T13:05:57.640Z,8.20
2023-01-27T13:06:57.641Z,6.70
2023-01-27T13:07:57.659Z,6.80
2023-01-27T13:08:57.676Z,7.20
2023-01-27T13:09:57.682Z,6.90
2023-01-27T13:10:57.700Z,7.50
2023-01-27T13:11:57.712Z,8.20
2023-01-27T13:12:57.733Z,6.60
2023-01-27T13:13:57.755Z,7.00
2023-01-27T13:14:57.834Z,6.90
2023-01-27T13:15:57.837Z,6.90
2023-01-27T13:16:57.799Z,7.00
2023-01-27T13:17:57.811Z,6.30
2023-01-27T13:18:57.838Z,7.90